sensor_id;sensor_type;location;lat;lon;timestamp;P1;durP1;ratioP1;P2;durP2;ratioP2
8982;SDS011;20979;59.850;10.660;2022-09-06T00:01:36;2.60;;;1.23;;
8982;SDS011;20979;59.850;10.660;2022-09-06T00:04:03;1.87;;;1.70;;
8982;SDS011;20979;59.850;10.660;2022-09-06T00:06:33;1.50;;;1.40;;
8982;SDS011;20979;59.850;10.660;2022-09-06T00:09:01;2.30;;;1.30;;
8982;SDS011;20979;59.850;10.660;2022-09-06T00:11:28;1.40;;;1.30;;
8982;SDS011;20979;59.850;10.660;2022-09-06T00:14:04;1.60;;;1.50;;
8982;SDS011;20979;59.850;10.660;2022-09-06T00:16:51;1.93;;;1.50;;
8982;SDS011;20979;59.850;10.660;2022-09-06T00:25:32;1.83;;;1.63;;
8982;SDS011;20979;59.850;10.660;2022-09-06T00:31:20;1.60;;;1.50;;
8982;SDS011;20979;59.850;10.660;2022-09-06T00:33:53;1.40;;;1.30;;
8982;SDS011;20979;59.850;10.660;2022-09-06T00:36:21;1.50;;;1.40;;
8982;SDS011;20979;59.850;10.660;2022-09-06T00:38:51;1.87;;;1.70;;
8982;SDS011;20979;59.850;10.660;2022-09-06T00:41:26;1.60;;;1.50;;
8982;SDS011;20979;59.850;10.660;2022-09-06T00:44:00;1.87;;;1.70;;
8982;SDS011;20979;59.850;10.660;2022-09-06T01:01:26;1.57;;;1.47;;
8982;SDS011;20979;59.850;10.660;2022-09-06T01:03:55;2.00;;;1.43;;
8982;SDS011;20979;59.850;10.660;2022-09-06T01:06:27;1.60;;;1.50;;
8982;SDS011;20979;59.850;10.660;2022-09-06T01:08:59;2.20;;;1.60;;
8982;SDS011;20979;59.850;10.660;2022-09-06T01:11:40;1.80;;;1.40;;
8982;SDS011;20979;59.850;10.660;2022-09-06T01:14:29;1.87;;;1.60;;
8982;SDS011;20979;59.850;10.660;2022-09-06T01:17:02;2.00;;;1.70;;
8982;SDS011;20979;59.850;10.660;2022-09-06T01:22:48;2.13;;;1.60;;
8982;SDS011;20979;59.850;10.660;2022-09-06T01:25:26;1.80;;;1.70;;
8982;SDS011;20979;59.850;10.660;2022-09-06T01:40:29;1.70;;;1.60;;
8982;SDS011;20979;59.850;10.660;2022-09-06T01:43:00;1.53;;;1.37;;
8982;SDS011;20979;59.850;10.660;2022-09-06T01:45:31;1.67;;;1.57;;
8982;SDS011;20979;59.850;10.660;2022-09-06T01:48:03;2.43;;;1.67;;
8982;SDS011;20979;59.850;10.660;2022-09-06T01:50:46;3.20;;;1.60;;
8982;SDS011;20979;59.850;10.660;2022-09-06T01:53:19;1.87;;;1.37;;
8982;SDS011;20979;59.850;10.660;2022-09-06T01:55:59;4.63;;;1.70;;
8982;SDS011;20979;59.850;10.660;2022-09-06T01:58:42;2.53;;;1.50;;
8982;SDS011;20979;59.850;10.660;2022-09-06T02:01:19;3.07;;;1.60;;
8982;SDS011;20979;59.850;10.660;2022-09-06T02:03:51;3.63;;;1.63;;
8982;SDS011;20979;59.850;10.660;2022-09-06T02:06:21;1.40;;;1.30;;
8982;SDS011;20979;59.850;10.660;2022-09-06T02:08:50;1.40;;;1.30;;
8982;SDS011;20979;59.850;10.660;2022-09-06T02:14:22;1.70;;;1.60;;
8982;SDS011;20979;59.850;10.660;2022-09-06T02:16:55;2.13;;;1.50;;
8982;SDS011;20979;59.850;10.660;2022-09-06T02:19:26;2.10;;;1.53;;
8982;SDS011;20979;59.850;10.660;2022-09-06T02:21:55;1.47;;;1.37;;
8982;SDS011;20979;59.850;10.660;2022-09-06T02:24:37;1.53;;;1.43;;
8982;SDS011;20979;59.850;10.660;2022-09-06T02:27:06;1.63;;;1.47;;
8982;SDS011;20979;59.850;10.660;2022-09-06T02:35:50;1.60;;;1.50;;
8982;SDS011;20979;59.850;10.660;2022-09-06T02:38:38;2.40;;;1.40;;
8982;SDS011;20979;59.850;10.660;2022-09-06T02:41:06;2.20;;;1.60;;
8982;SDS011;20979;59.850;10.660;2022-09-06T02:43:34;1.60;;;1.50;;
8982;SDS011;20979;59.850;10.660;2022-09-06T02:46:04;1.90;;;1.70;;
8982;SDS011;20979;59.850;10.660;2022-09-06T02:48:34;1.50;;;1.40;;
8982;SDS011;20979;59.850;10.660;2022-09-06T02:51:04;1.60;;;1.47;;
8982;SDS011;20979;59.850;10.660;2022-09-06T02:53:46;1.90;;;1.70;;
8982;SDS011;20979;59.850;10.660;2022-09-06T02:59:07;1.93;;;1.40;;
8982;SDS011;20979;59.850;10.660;2022-09-06T03:01:34;1.70;;;1.50;;
8982;SDS011;20979;59.850;10.660;2022-09-06T03:10:17;1.53;;;1.43;;
8982;SDS011;20979;59.850;10.660;2022-09-06T03:12:45;1.47;;;1.40;;
8982;SDS011;20979;59.850;10.660;2022-09-06T03:15:14;1.60;;;1.50;;
8982;SDS011;20979;59.850;10.660;2022-09-06T03:17:42;1.83;;;1.50;;
8982;SDS011;20979;59.850;10.660;2022-09-06T03:23:29;1.83;;;1.73;;
8982;SDS011;20979;59.850;10.660;2022-09-06T03:26:12;1.97;;;1.53;;
8982;SDS011;20979;59.850;10.660;2022-09-06T03:38:11;3.33;;;1.50;;
8982;SDS011;20979;59.850;10.660;2022-09-06T03:40:55;2.10;;;1.33;;
8982;SDS011;20979;59.850;10.660;2022-09-06T03:43:26;3.03;;;1.60;;
8982;SDS011;20979;59.850;10.660;2022-09-06T03:48:55;1.70;;;1.60;;
8982;SDS011;20979;59.850;10.660;2022-09-06T03:54:44;4.57;;;1.70;;
8982;SDS011;20979;59.850;10.660;2022-09-06T03:57:11;1.47;;;1.37;;
8982;SDS011;20979;59.850;10.660;2022-09-06T03:59:40;2.90;;;1.63;;
8982;SDS011;20979;59.850;10.660;2022-09-06T04:02:08;1.80;;;1.70;;
8982;SDS011;20979;59.850;10.660;2022-09-06T04:04:35;1.97;;;1.83;;
8982;SDS011;20979;59.850;10.660;2022-09-06T04:07:03;2.50;;;1.60;;
8982;SDS011;20979;59.850;10.660;2022-09-06T04:09:35;2.50;;;1.73;;
8982;SDS011;20979;59.850;10.660;2022-09-06T04:15:21;1.70;;;1.60;;
8982;SDS011;20979;59.850;10.660;2022-09-06T04:18:02;2.00;;;1.73;;
8982;SDS011;20979;59.850;10.660;2022-09-06T04:20:31;1.53;;;1.43;;
8982;SDS011;20979;59.850;10.660;2022-09-06T04:29:35;2.33;;;1.63;;
8982;SDS011;20979;59.850;10.660;2022-09-06T04:35:20;2.43;;;1.70;;
8982;SDS011;20979;59.850;10.660;2022-09-06T04:38:01;3.20;;;1.67;;
8982;SDS011;20979;59.850;10.660;2022-09-06T04:40:47;2.30;;;1.60;;
8982;SDS011;20979;59.850;10.660;2022-09-06T04:43:29;2.40;;;1.60;;
8982;SDS011;20979;59.850;10.660;2022-09-06T04:46:20;3.70;;;1.93;;
8982;SDS011;20979;59.850;10.660;2022-09-06T04:48:49;3.70;;;1.50;;
8982;SDS011;20979;59.850;10.660;2022-09-06T04:51:18;1.70;;;1.50;;
8982;SDS011;20979;59.850;10.660;2022-09-06T04:53:59;2.97;;;1.70;;
8982;SDS011;20979;59.850;10.660;2022-09-06T04:56:27;1.90;;;1.80;;
8982;SDS011;20979;59.850;10.660;2022-09-06T05:02:11;1.90;;;1.80;;
8982;SDS011;20979;59.850;10.660;2022-09-06T05:04:52;1.67;;;1.57;;
8982;SDS011;20979;59.850;10.660;2022-09-06T05:07:38;2.30;;;1.77;;
8982;SDS011;20979;59.850;10.660;2022-09-06T05:10:05;1.83;;;1.60;;
8982;SDS011;20979;59.850;10.660;2022-09-06T05:15:50;2.13;;;1.93;;
8982;SDS011;20979;59.850;10.660;2022-09-06T05:30:22;2.00;;;1.77;;
8982;SDS011;20979;59.850;10.660;2022-09-06T05:32:50;3.13;;;1.60;;
8982;SDS011;20979;59.850;10.660;2022-09-06T05:35:17;1.90;;;1.80;;
8982;SDS011;20979;59.850;10.660;2022-09-06T05:37:45;2.07;;;1.90;;
8982;SDS011;20979;59.850;10.660;2022-09-06T05:40:26;2.47;;;1.80;;
8982;SDS011;20979;59.850;10.660;2022-09-06T05:42:53;2.60;;;2.10;;
8982;SDS011;20979;59.850;10.660;2022-09-06T05:45:22;2.53;;;2.00;;
8982;SDS011;20979;59.850;10.660;2022-09-06T05:47:50;2.97;;;1.90;;
8982;SDS011;20979;59.850;10.660;2022-09-06T05:50:18;2.30;;;1.87;;
8982;SDS011;20979;59.850;10.660;2022-09-06T05:52:45;2.57;;;2.23;;
8982;SDS011;20979;59.850;10.660;2022-09-06T05:55:13;3.17;;;2.03;;
8982;SDS011;20979;59.850;10.660;2022-09-06T05:57:40;3.27;;;2.10;;
8982;SDS011;20979;59.850;10.660;2022-09-06T06:00:13;4.27;;;2.27;;
8982;SDS011;20979;59.850;10.660;2022-09-06T06:03:17;3.53;;;2.53;;
8982;SDS011;20979;59.850;10.660;2022-09-06T06:05:45;4.07;;;2.60;;
8982;SDS011;20979;59.850;10.660;2022-09-06T06:08:30;5.47;;;3.07;;
8982;SDS011;20979;59.850;10.660;2022-09-06T06:11:10;5.87;;;3.13;;
8982;SDS011;20979;59.850;10.660;2022-09-06T06:13:45;3.20;;;2.80;;
8982;SDS011;20979;59.850;10.660;2022-09-06T06:16:13;4.47;;;3.00;;
8982;SDS011;20979;59.850;10.660;2022-09-06T06:18:42;3.50;;;2.80;;
8982;SDS011;20979;59.850;10.660;2022-09-06T06:21:10;4.37;;;3.23;;
8982;SDS011;20979;59.850;10.660;2022-09-06T06:23:38;3.93;;;3.10;;
8982;SDS011;20979;59.850;10.660;2022-09-06T06:26:06;4.50;;;3.20;;
8982;SDS011;20979;59.850;10.660;2022-09-06T06:28:33;5.70;;;3.30;;
8982;SDS011;20979;59.850;10.660;2022-09-06T06:31:01;5.70;;;3.17;;
8982;SDS011;20979;59.850;10.660;2022-09-06T06:33:28;6.67;;;3.83;;
8982;SDS011;20979;59.850;10.660;2022-09-06T06:36:01;7.00;;;3.53;;
8982;SDS011;20979;59.850;10.660;2022-09-06T06:38:30;4.23;;;3.83;;
8982;SDS011;20979;59.850;10.660;2022-09-06T06:40:57;5.17;;;4.50;;
8982;SDS011;20979;59.850;10.660;2022-09-06T06:43:24;4.60;;;4.20;;
8982;SDS011;20979;59.850;10.660;2022-09-06T06:45:52;5.00;;;4.47;;
8982;SDS011;20979;59.850;10.660;2022-09-06T06:48:19;4.67;;;4.27;;
8982;SDS011;20979;59.850;10.660;2022-09-06T06:50:46;5.20;;;4.70;;
8982;SDS011;20979;59.850;10.660;2022-09-06T06:53:15;4.63;;;4.20;;
8982;SDS011;20979;59.850;10.660;2022-09-06T06:55:46;5.80;;;4.40;;
8982;SDS011;20979;59.850;10.660;2022-09-06T06:58:14;3.87;;;3.57;;
8982;SDS011;20979;59.850;10.660;2022-09-06T07:00:41;3.97;;;3.67;;
8982;SDS011;20979;59.850;10.660;2022-09-06T07:03:09;3.90;;;3.27;;
8982;SDS011;20979;59.850;10.660;2022-09-06T07:05:37;3.60;;;3.30;;
8982;SDS011;20979;59.850;10.660;2022-09-06T07:08:20;4.67;;;4.23;;
8982;SDS011;20979;59.850;10.660;2022-09-06T07:10:47;5.40;;;3.90;;
8982;SDS011;20979;59.850;10.660;2022-09-06T07:13:17;4.87;;;3.83;;
8982;SDS011;20979;59.850;10.660;2022-09-06T07:15:44;3.90;;;3.43;;
8982;SDS011;20979;59.850;10.660;2022-09-06T07:18:13;4.77;;;4.33;;
8982;SDS011;20979;59.850;10.660;2022-09-06T07:20:41;4.70;;;4.33;;
8982;SDS011;20979;59.850;10.660;2022-09-06T07:23:09;4.17;;;3.80;;
8982;SDS011;20979;59.850;10.660;2022-09-06T07:25:44;4.17;;;3.50;;
8982;SDS011;20979;59.850;10.660;2022-09-06T07:31:27;4.70;;;3.57;;
8982;SDS011;20979;59.850;10.660;2022-09-06T07:33:56;5.17;;;3.93;;
8982;SDS011;20979;59.850;10.660;2022-09-06T07:36:23;4.30;;;3.60;;
8982;SDS011;20979;59.850;10.660;2022-09-06T07:38:51;4.70;;;3.67;;
8982;SDS011;20979;59.850;10.660;2022-09-06T07:41:23;3.97;;;3.40;;
8982;SDS011;20979;59.850;10.660;2022-09-06T07:44:04;3.47;;;3.17;;
8982;SDS011;20979;59.850;10.660;2022-09-06T07:49:47;2.70;;;2.50;;
8982;SDS011;20979;59.850;10.660;2022-09-06T07:52:15;2.90;;;2.60;;
8982;SDS011;20979;59.850;10.660;2022-09-06T07:58:18;2.20;;;2.00;;
8982;SDS011;20979;59.850;10.660;2022-09-06T08:00:47;2.73;;;2.10;;
8982;SDS011;20979;59.850;10.660;2022-09-06T08:05:52;2.67;;;2.47;;
8982;SDS011;20979;59.850;10.660;2022-09-06T08:08:19;3.00;;;2.60;;
8982;SDS011;20979;59.850;10.660;2022-09-06T08:10:48;2.47;;;2.27;;
8982;SDS011;20979;59.850;10.660;2022-09-06T08:16:18;3.53;;;2.27;;
8982;SDS011;20979;59.850;10.660;2022-09-06T08:19:00;3.87;;;2.50;;
8982;SDS011;20979;59.850;10.660;2022-09-06T08:21:28;2.90;;;2.23;;
8982;SDS011;20979;59.850;10.660;2022-09-06T08:24:10;2.37;;;2.27;;
8982;SDS011;20979;59.850;10.660;2022-09-06T08:26:37;2.57;;;2.00;;
8982;SDS011;20979;59.850;10.660;2022-09-06T08:29:06;2.17;;;1.98;;
8982;SDS011;20979;59.850;10.660;2022-09-06T08:31:36;2.28;;;1.83;;
8982;SDS011;20979;59.850;10.660;2022-09-06T08:34:04;3.20;;;1.70;;
8982;SDS011;20979;59.850;10.660;2022-09-06T08:36:31;1.90;;;1.80;;
8982;SDS011;20979;59.850;10.660;2022-09-06T08:38:59;1.70;;;1.60;;
8982;SDS011;20979;59.850;10.660;2022-09-06T08:41:28;1.70;;;1.60;;
8982;SDS011;20979;59.850;10.660;2022-09-06T08:43:57;1.90;;;1.75;;
8982;SDS011;20979;59.850;10.660;2022-09-06T08:46:26;1.77;;;1.60;;
8982;SDS011;20979;59.850;10.660;2022-09-06T08:54:23;1.60;;;1.50;;
8982;SDS011;20979;59.850;10.660;2022-09-06T08:57:00;2.78;;;1.80;;
8982;SDS011;20979;59.850;10.660;2022-09-06T08:59:29;2.58;;;1.80;;
8982;SDS011;20979;59.850;10.660;2022-09-06T09:02:01;1.85;;;1.55;;
8982;SDS011;20979;59.850;10.660;2022-09-06T09:04:34;1.70;;;1.60;;
8982;SDS011;20979;59.850;10.660;2022-09-06T09:07:15;3.30;;;2.05;;
8982;SDS011;20979;59.850;10.660;2022-09-06T09:15:38;1.60;;;1.50;;
8982;SDS011;20979;59.850;10.660;2022-09-06T09:21:18;1.40;;;1.30;;
8982;SDS011;20979;59.850;10.660;2022-09-06T09:23:47;1.88;;;1.48;;
8982;SDS011;20979;59.850;10.660;2022-09-06T09:26:17;1.63;;;1.52;;
8982;SDS011;20979;59.850;10.660;2022-09-06T09:34:11;1.65;;;1.40;;
8982;SDS011;20979;59.850;10.660;2022-09-06T09:36:39;1.20;;;1.20;;
8982;SDS011;20979;59.850;10.660;2022-09-06T09:39:22;1.75;;;1.50;;
8982;SDS011;20979;59.850;10.660;2022-09-06T09:41:59;1.52;;;1.42;;
8982;SDS011;20979;59.850;10.660;2022-09-06T09:44:27;1.90;;;1.30;;
8982;SDS011;20979;59.850;10.660;2022-09-06T09:46:55;1.35;;;1.25;;
8982;SDS011;20979;59.850;10.660;2022-09-06T09:49:39;1.70;;;1.60;;
8982;SDS011;20979;59.850;10.660;2022-09-06T09:52:08;2.05;;;1.88;;
8982;SDS011;20979;59.850;10.660;2022-09-06T09:54:36;2.97;;;1.70;;
8982;SDS011;20979;59.850;10.660;2022-09-06T09:57:18;2.25;;;1.90;;
8982;SDS011;20979;59.850;10.660;2022-09-06T09:59:59;2.42;;;1.70;;
8982;SDS011;20979;59.850;10.660;2022-09-06T10:02:28;2.30;;;1.98;;
8982;SDS011;20979;59.850;10.660;2022-09-06T10:07:58;2.15;;;1.95;;
8982;SDS011;20979;59.850;10.660;2022-09-06T10:10:26;3.55;;;1.83;;
8982;SDS011;20979;59.850;10.660;2022-09-06T10:13:13;3.00;;;1.80;;
8982;SDS011;20979;59.850;10.660;2022-09-06T10:15:44;1.83;;;1.73;;
8982;SDS011;20979;59.850;10.660;2022-09-06T10:21:01;1.60;;;1.50;;
8982;SDS011;20979;59.850;10.660;2022-09-06T10:41:49;0.80;;;0.80;;
8982;SDS011;20979;59.850;10.660;2022-09-06T10:44:33;0.82;;;0.82;;
8982;SDS011;20979;59.850;10.660;2022-09-06T10:47:04;0.77;;;0.77;;
8982;SDS011;20979;59.850;10.660;2022-09-06T10:49:34;0.75;;;0.70;;
8982;SDS011;20979;59.850;10.660;2022-09-06T10:52:04;1.20;;;0.70;;
8982;SDS011;20979;59.850;10.660;2022-09-06T10:54:38;0.82;;;0.82;;
8982;SDS011;20979;59.850;10.660;2022-09-06T10:57:14;0.82;;;0.82;;
8982;SDS011;20979;59.850;10.660;2022-09-06T10:59:46;0.68;;;0.57;;
8982;SDS011;20979;59.850;10.660;2022-09-06T11:02:37;0.88;;;0.50;;
8982;SDS011;20979;59.850;10.660;2022-09-06T11:05:05;0.98;;;0.60;;
8982;SDS011;20979;59.850;10.660;2022-09-06T11:07:35;0.85;;;0.60;;
8982;SDS011;20979;59.850;10.660;2022-09-06T11:10:05;0.60;;;0.60;;
8982;SDS011;20979;59.850;10.660;2022-09-06T11:12:36;0.82;;;0.60;;
8982;SDS011;20979;59.850;10.660;2022-09-06T11:15:06;1.13;;;0.85;;
8982;SDS011;20979;59.850;10.660;2022-09-06T11:17:35;1.35;;;0.68;;
8982;SDS011;20979;59.850;10.660;2022-09-06T11:20:14;0.60;;;0.60;;
8982;SDS011;20979;59.850;10.660;2022-09-06T11:22:46;1.63;;;0.80;;
8982;SDS011;20979;59.850;10.660;2022-09-06T11:28:04;0.82;;;0.60;;
8982;SDS011;20979;59.850;10.660;2022-09-06T11:30:35;1.27;;;0.70;;
8982;SDS011;20979;59.850;10.660;2022-09-06T11:33:05;0.60;;;0.60;;
8982;SDS011;20979;59.850;10.660;2022-09-06T11:35:33;0.60;;;0.60;;
8982;SDS011;20979;59.850;10.660;2022-09-06T11:38:01;1.73;;;0.70;;
8982;SDS011;20979;59.850;10.660;2022-09-06T11:40:34;0.55;;;0.55;;
8982;SDS011;20979;59.850;10.660;2022-09-06T11:49:06;0.60;;;0.60;;
8982;SDS011;20979;59.850;10.660;2022-09-06T11:51:35;0.80;;;0.52;;
8982;SDS011;20979;59.850;10.660;2022-09-06T11:56:50;1.65;;;0.60;;
8982;SDS011;20979;59.850;10.660;2022-09-06T12:02:55;0.50;;;0.50;;
8982;SDS011;20979;59.850;10.660;2022-09-06T12:05:28;0.55;;;0.50;;
8982;SDS011;20979;59.850;10.660;2022-09-06T12:10:45;0.50;;;0.50;;
8982;SDS011;20979;59.850;10.660;2022-09-06T12:13:33;2.72;;;0.60;;
8982;SDS011;20979;59.850;10.660;2022-09-06T12:16:20;0.57;;;0.55;;
8982;SDS011;20979;59.850;10.660;2022-09-06T12:19:01;1.40;;;0.80;;
8982;SDS011;20979;59.850;10.660;2022-09-06T12:21:43;0.57;;;0.57;;
8982;SDS011;20979;59.850;10.660;2022-09-06T12:33:24;0.50;;;0.50;;
8982;SDS011;20979;59.850;10.660;2022-09-06T12:36:19;0.40;;;0.40;;
8982;SDS011;20979;59.850;10.660;2022-09-06T12:38:57;0.52;;;0.50;;
8982;SDS011;20979;59.850;10.660;2022-09-06T12:41:25;2.28;;;0.57;;
8982;SDS011;20979;59.850;10.660;2022-09-06T12:43:53;0.65;;;0.47;;
8982;SDS011;20979;59.850;10.660;2022-09-06T12:46:22;0.60;;;0.60;;
8982;SDS011;20979;59.850;10.660;2022-09-06T12:49:00;0.93;;;0.40;;
8982;SDS011;20979;59.850;10.660;2022-09-06T12:52:10;1.05;;;0.80;;
8982;SDS011;20979;59.850;10.660;2022-09-06T13:00:34;0.60;;;0.60;;
8982;SDS011;20979;59.850;10.660;2022-09-06T13:03:04;0.32;;;0.32;;
8982;SDS011;20979;59.850;10.660;2022-09-06T13:05:36;1.25;;;0.55;;
8982;SDS011;20979;59.850;10.660;2022-09-06T13:08:25;1.10;;;0.60;;
8982;SDS011;20979;59.850;10.660;2022-09-06T13:10:56;1.17;;;0.73;;
8982;SDS011;20979;59.850;10.660;2022-09-06T13:13:24;0.50;;;0.50;;
8982;SDS011;20979;59.850;10.660;2022-09-06T13:15:54;0.57;;;0.52;;
8982;SDS011;20979;59.850;10.660;2022-09-06T13:21:35;0.60;;;0.60;;
8982;SDS011;20979;59.850;10.660;2022-09-06T13:24:16;0.40;;;0.40;;
8982;SDS011;20979;59.850;10.660;2022-09-06T13:26:44;0.50;;;0.50;;
8982;SDS011;20979;59.850;10.660;2022-09-06T13:30:03;0.60;;;0.60;;
8982;SDS011;20979;59.850;10.660;2022-09-06T13:32:14;1.50;;;0.60;;
8982;SDS011;20979;59.850;10.660;2022-09-06T13:34:56;0.60;;;0.60;;
8982;SDS011;20979;59.850;10.660;2022-09-06T13:37:28;0.50;;;0.50;;
8982;SDS011;20979;59.850;10.660;2022-09-06T13:40:02;1.35;;;0.68;;
8982;SDS011;20979;59.850;10.660;2022-09-06T13:45:30;1.45;;;0.60;;
8982;SDS011;20979;59.850;10.660;2022-09-06T13:48:08;0.50;;;0.50;;
8982;SDS011;20979;59.850;10.660;2022-09-06T13:59:39;3.00;;;0.73;;
8982;SDS011;20979;59.850;10.660;2022-09-06T14:02:07;0.50;;;0.50;;
8982;SDS011;20979;59.850;10.660;2022-09-06T14:04:37;0.70;;;0.70;;
8982;SDS011;20979;59.850;10.660;2022-09-06T14:16:15;0.50;;;0.50;;
8982;SDS011;20979;59.850;10.660;2022-09-06T14:18:42;0.55;;;0.50;;
8982;SDS011;20979;59.850;10.660;2022-09-06T14:21:11;0.55;;;0.55;;
8982;SDS011;20979;59.850;10.660;2022-09-06T14:23:49;0.68;;;0.68;;
8982;SDS011;20979;59.850;10.660;2022-09-06T14:35:31;0.50;;;0.50;;
8982;SDS011;20979;59.850;10.660;2022-09-06T14:41:23;0.60;;;0.60;;
8982;SDS011;20979;59.850;10.660;2022-09-06T14:43:54;0.60;;;0.60;;
8982;SDS011;20979;59.850;10.660;2022-09-06T14:46:28;0.93;;;0.70;;
8982;SDS011;20979;59.850;10.660;2022-09-06T14:48:55;0.70;;;0.70;;
8982;SDS011;20979;59.850;10.660;2022-09-06T14:51:23;0.73;;;0.70;;
8982;SDS011;20979;59.850;10.660;2022-09-06T14:53:54;0.68;;;0.60;;
8982;SDS011;20979;59.850;10.660;2022-09-06T14:56:24;0.82;;;0.82;;
8982;SDS011;20979;59.850;10.660;2022-09-06T14:59:02;1.27;;;0.90;;
8982;SDS011;20979;59.850;10.660;2022-09-06T15:01:30;0.70;;;0.65;;
8982;SDS011;20979;59.850;10.660;2022-09-06T15:03:58;1.35;;;0.50;;
8982;SDS011;20979;59.850;10.660;2022-09-06T15:06:26;1.50;;;0.60;;
8982;SDS011;20979;59.850;10.660;2022-09-06T15:09:00;1.38;;;0.80;;
8982;SDS011;20979;59.850;10.660;2022-09-06T15:11:32;2.22;;;0.70;;
8982;SDS011;20979;59.850;10.660;2022-09-06T15:14:00;0.80;;;0.80;;
8982;SDS011;20979;59.850;10.660;2022-09-06T15:16:41;0.75;;;0.75;;
8982;SDS011;20979;59.850;10.660;2022-09-06T15:19:09;3.10;;;0.90;;
8982;SDS011;20979;59.850;10.660;2022-09-06T15:21:37;0.70;;;0.70;;
8982;SDS011;20979;59.850;10.660;2022-09-06T15:24:04;0.80;;;0.80;;
8982;SDS011;20979;59.850;10.660;2022-09-06T15:26:47;0.80;;;0.80;;
8982;SDS011;20979;59.850;10.660;2022-09-06T15:29:15;0.90;;;0.90;;
8982;SDS011;20979;59.850;10.660;2022-09-06T15:31:55;1.00;;;1.00;;
8982;SDS011;20979;59.850;10.660;2022-09-06T15:34:23;2.05;;;1.35;;
8982;SDS011;20979;59.850;10.660;2022-09-06T15:36:51;1.60;;;1.50;;
8982;SDS011;20979;59.850;10.660;2022-09-06T15:39:20;1.85;;;1.40;;
8982;SDS011;20979;59.850;10.660;2022-09-06T15:41:49;1.60;;;1.30;;
8982;SDS011;20979;59.850;10.660;2022-09-06T15:44:18;0.80;;;0.80;;
8982;SDS011;20979;59.850;10.660;2022-09-06T15:46:46;1.35;;;1.13;;
8982;SDS011;20979;59.850;10.660;2022-09-06T15:49:28;1.77;;;0.90;;
8982;SDS011;20979;59.850;10.660;2022-09-06T15:51:56;0.93;;;0.85;;
8982;SDS011;20979;59.850;10.660;2022-09-06T15:54:25;0.90;;;0.90;;
8982;SDS011;20979;59.850;10.660;2022-09-06T15:59:50;1.02;;;0.93;;
8982;SDS011;20979;59.850;10.660;2022-09-06T16:02:23;1.65;;;0.82;;
8982;SDS011;20979;59.850;10.660;2022-09-06T16:04:51;1.73;;;0.80;;
8982;SDS011;20979;59.850;10.660;2022-09-06T16:07:26;1.00;;;0.90;;
8982;SDS011;20979;59.850;10.660;2022-09-06T16:12:46;0.82;;;0.82;;
8982;SDS011;20979;59.850;10.660;2022-09-06T16:15:15;1.95;;;0.90;;
8982;SDS011;20979;59.850;10.660;2022-09-06T16:17:42;0.93;;;0.93;;
8982;SDS011;20979;59.850;10.660;2022-09-06T16:20:12;1.00;;;0.90;;
8982;SDS011;20979;59.850;10.660;2022-09-06T16:22:40;0.70;;;0.70;;
8982;SDS011;20979;59.850;10.660;2022-09-06T16:25:10;0.80;;;0.70;;
8982;SDS011;20979;59.850;10.660;2022-09-06T16:27:38;0.95;;;0.63;;
8982;SDS011;20979;59.850;10.660;2022-09-06T16:30:20;1.23;;;0.80;;
8982;SDS011;20979;59.850;10.660;2022-09-06T16:32:48;1.58;;;0.82;;
8982;SDS011;20979;59.850;10.660;2022-09-06T16:35:16;1.80;;;0.90;;
8982;SDS011;20979;59.850;10.660;2022-09-06T16:37:43;2.25;;;0.90;;
8982;SDS011;20979;59.850;10.660;2022-09-06T16:40:13;0.82;;;0.70;;
8982;SDS011;20979;59.850;10.660;2022-09-06T16:42:41;1.42;;;0.70;;
8982;SDS011;20979;59.850;10.660;2022-09-06T16:45:09;0.80;;;0.80;;
8982;SDS011;20979;59.850;10.660;2022-09-06T16:47:38;0.82;;;0.82;;
8982;SDS011;20979;59.850;10.660;2022-09-06T16:50:05;0.85;;;0.77;;
8982;SDS011;20979;59.850;10.660;2022-09-06T16:52:32;1.23;;;0.90;;
8982;SDS011;20979;59.850;10.660;2022-09-06T16:55:00;0.90;;;0.90;;
8982;SDS011;20979;59.850;10.660;2022-09-06T16:57:30;1.88;;;1.02;;
8982;SDS011;20979;59.850;10.660;2022-09-06T16:59:58;0.85;;;0.85;;
8982;SDS011;20979;59.850;10.660;2022-09-06T17:02:25;1.17;;;0.85;;
8982;SDS011;20979;59.850;10.660;2022-09-06T17:04:54;0.70;;;0.70;;
8982;SDS011;20979;59.850;10.660;2022-09-06T17:07:22;0.80;;;0.80;;
8982;SDS011;20979;59.850;10.660;2022-09-06T17:09:49;1.25;;;0.77;;
8982;SDS011;20979;59.850;10.660;2022-09-06T17:12:16;1.27;;;1.00;;
8982;SDS011;20979;59.850;10.660;2022-09-06T17:14:44;0.80;;;0.77;;
8982;SDS011;20979;59.850;10.660;2022-09-06T17:17:11;1.98;;;0.70;;
8982;SDS011;20979;59.850;10.660;2022-09-06T17:19:38;1.23;;;1.13;;
8982;SDS011;20979;59.850;10.660;2022-09-06T17:22:07;1.13;;;0.80;;
8982;SDS011;20979;59.850;10.660;2022-09-06T17:24:35;1.00;;;0.95;;
8982;SDS011;20979;59.850;10.660;2022-09-06T17:27:02;1.35;;;1.05;;
8982;SDS011;20979;59.850;10.660;2022-09-06T17:29:30;1.63;;;1.52;;
8982;SDS011;20979;59.850;10.660;2022-09-06T17:31:57;1.45;;;1.35;;
8982;SDS011;20979;59.850;10.660;2022-09-06T17:34:24;1.27;;;1.20;;
8982;SDS011;20979;59.850;10.660;2022-09-06T17:36:52;1.23;;;0.90;;
8982;SDS011;20979;59.850;10.660;2022-09-06T17:39:25;1.30;;;1.10;;
8982;SDS011;20979;59.850;10.660;2022-09-06T17:41:53;1.52;;;1.13;;
8982;SDS011;20979;59.850;10.660;2022-09-06T17:44:21;2.97;;;1.30;;
8982;SDS011;20979;59.850;10.660;2022-09-06T17:46:49;1.70;;;0.98;;
8982;SDS011;20979;59.850;10.660;2022-09-06T17:49:16;1.43;;;0.77;;
8982;SDS011;20979;59.850;10.660;2022-09-06T17:51:44;1.05;;;1.05;;
8982;SDS011;20979;59.850;10.660;2022-09-06T17:54:12;1.85;;;0.93;;
8982;SDS011;20979;59.850;10.660;2022-09-06T17:56:41;0.90;;;0.80;;
8982;SDS011;20979;59.850;10.660;2022-09-06T17:59:24;4.95;;;1.20;;
8982;SDS011;20979;59.850;10.660;2022-09-06T18:01:52;1.27;;;0.90;;
8982;SDS011;20979;59.850;10.660;2022-09-06T18:04:19;1.67;;;0.97;;
8982;SDS011;20979;59.850;10.660;2022-09-06T18:06:47;2.93;;;1.00;;
8982;SDS011;20979;59.850;10.660;2022-09-06T18:09:14;0.70;;;0.70;;
8982;SDS011;20979;59.850;10.660;2022-09-06T18:11:44;1.10;;;0.90;;
8982;SDS011;20979;59.850;10.660;2022-09-06T18:14:12;2.33;;;0.97;;
8982;SDS011;20979;59.850;10.660;2022-09-06T18:16:41;1.03;;;0.73;;
8982;SDS011;20979;59.850;10.660;2022-09-06T18:19:13;1.00;;;0.80;;
8982;SDS011;20979;59.850;10.660;2022-09-06T18:21:48;0.70;;;0.70;;
8982;SDS011;20979;59.850;10.660;2022-09-06T18:24:52;0.90;;;0.90;;
8982;SDS011;20979;59.850;10.660;2022-09-06T18:27:21;1.07;;;1.00;;
8982;SDS011;20979;59.850;10.660;2022-09-06T18:29:48;1.00;;;0.87;;
8982;SDS011;20979;59.850;10.660;2022-09-06T18:32:16;1.10;;;1.00;;
8982;SDS011;20979;59.850;10.660;2022-09-06T18:34:43;0.70;;;0.70;;
8982;SDS011;20979;59.850;10.660;2022-09-06T18:37:11;1.00;;;1.00;;
8982;SDS011;20979;59.850;10.660;2022-09-06T18:39:38;1.13;;;0.90;;
8982;SDS011;20979;59.850;10.660;2022-09-06T18:42:06;0.63;;;0.63;;
8982;SDS011;20979;59.850;10.660;2022-09-06T18:44:37;1.10;;;1.00;;
8982;SDS011;20979;59.850;10.660;2022-09-06T18:47:06;1.50;;;0.60;;
8982;SDS011;20979;59.850;10.660;2022-09-06T18:49:33;1.33;;;1.17;;
8982;SDS011;20979;59.850;10.660;2022-09-06T18:52:01;1.30;;;1.20;;
8982;SDS011;20979;59.850;10.660;2022-09-06T18:54:29;2.47;;;0.90;;
8982;SDS011;20979;59.850;10.660;2022-09-06T18:57:00;0.90;;;0.90;;
8982;SDS011;20979;59.850;10.660;2022-09-06T18:59:27;1.00;;;1.00;;
8982;SDS011;20979;59.850;10.660;2022-09-06T19:01:57;2.35;;;0.85;;
8982;SDS011;20979;59.850;10.660;2022-09-06T19:04:57;1.10;;;1.07;;
8982;SDS011;20979;59.850;10.660;2022-09-06T19:13:23;1.73;;;0.90;;
8982;SDS011;20979;59.850;10.660;2022-09-06T19:16:36;1.30;;;0.80;;
8982;SDS011;20979;59.850;10.660;2022-09-06T19:25:18;0.70;;;0.70;;
8982;SDS011;20979;59.850;10.660;2022-09-06T19:31:03;3.57;;;1.10;;
8982;SDS011;20979;59.850;10.660;2022-09-06T19:33:51;0.87;;;0.63;;
8982;SDS011;20979;59.850;10.660;2022-09-06T19:36:19;1.00;;;1.00;;